David Martin

Recruteur en chef - Bolton Wanderers
21 Oct 2027
Jeudi
Processus

Personnalité

Adaptabilité (1) Ambition (16) Controverse (14) Loyauté (19) Pression (13) Professionnalisme (11) Sportivité (1) Tempérament (7)

Profil

Style d'entraînement Démocratique
Diplôme Continental C
Détermination 7
Gestion des joueurs 11
Motivation 8
Discipline 6
Satisfaction professionnelle
86%
Fatigue
0%
Rôle Recruteur en chef
Salaire 40.8K p/s
Contrat 14.03.2029

Performance

Comportement Bon
Efficacité de l'entraînement
29%
Développement des joueurs
50%
Prévention des blessures
60%
Mise en place tactique
45%

Événements récents

A participé à une réunion de recrutement maintenant
A participé à une réunion de recrutement 7j
A recommandé une cible de transfert 7j
A recommandé une cible de transfert 7j
A évalué un joueur 14j
A participé à une réunion de recrutement 14j
A recommandé une cible de transfert 14j
A recommandé une cible de transfert 14j

Suivi en cours

103
Joueur Club Statut Capacité Confiance Observé Dernière observation Dernier vote
Tiago Parente Benfica Actif 102 / 121 40% 1 04.10.2027 -
Matías Canedo Rampla Juniors Actif 100 / 82 40% 1 04.10.2027 -
Curtis Tilt Bradford City Actif 104 / 102 58% 1 16.08.2027 -
Georginio Rutter Brighton Actif 152 / 140 40% 2 09.08.2027 -
Dominic Calvert-Lewin Leeds United Actif 154 / 154 40% 1 09.08.2027 -
Finley McAllister Grimsby Town Actif 84 / 86 40% 1 01.07.2027 -
Ethan Williams Peterborough United Actif 122 / 132 40% 1 01.07.2027 -
Jofre Torrents Ajax Actif 119 / 118 40% 2 15.06.2027 -
Hazeem Bakre Crawley Town Actif 94 / 79 40% 1 15.06.2027 -
Dion Beljo Standard Liege Actif 131 / 132 66% 1 01.06.2027 Approuver
Yussif Saidu Zaragoza Actif 121 / 118 40% 4 29.05.2027 -
Caleb Yirenkyi Coventry City Actif 134 / 147 40% 2 29.05.2027 -
Gonçalo Oliveira Benfica Actif 111 / 125 40% 4 28.05.2027 -
Ibrahim Sabiu Bendel Insurance Actif 94 / 94 40% 1 28.05.2027 -
Sascha Britschgi Padova Actif 126 / 115 40% 4 27.05.2027 -
Josh King Chelsea Perdu 130 / 151 40% 3 26.05.2027 -
Adam Bakoune Ospitaletto Actif 86 / 100 40% 2 25.05.2027 -
Pietro Reggiori Pro Patria Actif 82 / 87 40% 1 25.05.2027 -
Kazunari Kita Real Sociedad Actif 99 / 99 40% 4 24.05.2027 -
Joel Ezra Enyimba Actif 81 / 79 40% 1 24.05.2027 -
Fuzy Taylor Medeama Actif 80 / 67 40% 1 23.05.2027 -
Ernie Weaver AFC Wimbledon Actif 116 / 119 40% 3 21.05.2027 -
Davide Bartesaghi AC Milan Actif 130 / 126 40% 2 20.05.2027 -
Mpho Khethang AS Police Actif 88 / 88 40% 1 19.05.2027 -
Hlompho Lorch Ajax Cape Town Actif 91 / 119 40% 1 19.05.2027 -
Keagan Phiri Platinum Stars Actif 98 / 106 40% 1 17.05.2027 -
Ibrahim Maza Bayer Leverkusen Actif 156 / 151 40% 1 14.05.2027 -
Christos Mouzakitis Hull City Actif 138 / 145 40% 4 13.05.2027 -
Christ Inao Oulaï Fiorentina Actif 132 / 125 40% 1 13.05.2027 -
Joel McGregor Swindon Town Actif 102 / 106 40% 1 10.05.2027 -
Leandro Martins Benfica Actif 101 / 93 40% 1 08.05.2027 -
Zane Albarus Cambridge United Actif 89 / 97 40% 2 02.05.2027 -
Keagan Tau Ajax Cape Town Actif 97 / 86 40% 2 01.05.2027 -
David Ozoh Derby County Actif 112 / 121 40% 2 26.04.2027 -
Rivaldo Grobler Free State Stars Actif 112 / 86 40% 2 23.04.2027 -
Percy Jali Free State Stars Actif 81 / 121 40% 3 22.04.2027 -
Matías Gómez Granada Actif 120 / 113 40% 1 20.04.2027 -
Riley Owen Trento Actif 101 / 95 40% 2 11.04.2027 -
Joe Gelhardt Hull City Actif 124 / 143 40% 1 19.01.2027 -
Andreas Trimmel Red Bull Salzburg Actif 131 / 131 60% 1 01.01.2027 -
Amar Memić Casa Pia Négociation 127 / 128 62% 1 01.01.2027 -
Jefry Zapata Danubio Actif 118 / 118 67% 1 01.01.2027 Approuver
Jason Knight Bristol City Actif 126 / 116 40% 1 31.12.2026 -
Jesús Rodríguez Como Actif 139 / 141 40% 2 29.12.2026 -
Nico O'Reilly Manchester City Actif 150 / 145 40% 2 29.12.2026 -
Asanele Bonani Chippa United Actif 99 / 78 40% 2 28.12.2026 -
Araphat Mohammed Berekum Chelsea Actif 108 / 116 40% 1 28.12.2026 -
Endrick Real Madrid Actif 154 / 165 40% 1 27.12.2026 -
Williams Yikat Aigle Royal de Moungo Actif 96 / 91 40% 2 26.12.2026 -
Ishmael Addo Heart of Lions Actif 80 / 107 40% 1 26.12.2026 -
Thulani Dala Platinum Stars Actif 104 / 99 40% 2 25.12.2026 -
Morgan Whittaker Middlesbrough Actif 121 / 124 40% 1 25.12.2026 -
Mfundo Vilakazi Kaizer Chiefs Actif 94 / 117 40% 5 23.12.2026 -
Vivaldo Semedo Watford Actif 122 / 125 40% 1 23.12.2026 -
Rocco Vata Watford Actif 123 / 131 40% 1 23.12.2026 -
Hakim Sulemana Medeama Actif 105 / 96 40% 2 21.12.2026 -
Oswin Appollis Orlando Pirates Actif 127 / 118 40% 3 20.12.2026 -
Siyanda Ndlovu Bloemfontein Celtic Actif 115 / 118 40% 1 20.12.2026 -
Luphumlo Sifumba SuperSport United Actif 78 / 117 40% 2 18.12.2026 -
Bénie Traoré New York City Actif 118 / 126 40% 1 17.12.2026 -
Tshepang Moremi Orlando Pirates Actif 128 / 121 40% 1 17.12.2026 -
Siphelele Mthembu Jomo Cosmos Actif 107 / 76 40% 2 14.12.2026 -
Richard Koné Queens Park Rangers Actif 121 / 127 40% 1 12.12.2026 -
Williams Manyama SuperSport United Actif 117 / 133 40% 1 12.12.2026 -
Kutlwano Letlhaku Ajax Cape Town Actif 95 / 125 40% 1 11.12.2026 -
Mauricio Amaro Atlanta United FC Actif 117 / 131 40% 2 07.12.2026 -
Othmane Maamma Watford Actif 127 / 115 40% 3 03.12.2026 -
Marcelo Allende Mamelodi Sundowns Actif 117 / 115 40% 1 03.12.2026 -
Antonio Galeano Remo Stars Actif 140 / 141 40% 1 30.11.2026 -
Artem Slesar Zorya Actif 97 / 100 40% 1 30.11.2026 -
Nicholas Ablido Great Olympics Actif 84 / 96 40% 1 29.11.2026 -
James Dornelly Peterborough United Actif 100 / 114 40% 1 27.11.2026 -
Mandla Erasmus SuperSport United Actif 118 / 142 40% 3 25.11.2026 -
Cemran Dansin Orlando Pirates Actif 109 / 114 40% 2 24.11.2026 -
Matías Fernández-Pardo Newcastle United Actif 145 / 149 40% 1 24.11.2026 -
Ben Gannon Doak Bournemouth Actif 136 / 140 40% 1 20.11.2026 -
Yan Diomandé Real Madrid Actif 157 / 156 40% 1 19.11.2026 -
El Hadji Malick Diouf Brentford Actif 139 / 144 40% 1 19.11.2026 -
Nicolás Romero Minnesota United FC Actif 128 / 120 40% 1 18.11.2026 -
Rico Lewis Manchester City Actif 144 / 149 40% 5 12.11.2026 -
Isaac Kyereh Liberty Professionals Actif 111 / 99 40% 1 12.11.2026 -
Darren Yapi Colorado Rapids Actif 106 / 126 40% 1 11.11.2026 -
Sorba Thomas Stoke City Actif 125 / 137 40% 1 11.11.2026 -
Darlvin Yeboah Bechem United Actif 70 / 99 40% 1 11.11.2026 -
Razvan Balasa Crvena Zvezda Actif 164 / 133 40% 1 09.11.2026 -
Luka Jovanović San Jose Earthquakes Actif 111 / 109 40% 1 09.11.2026 -
Juan Manuel Sanabria Real Salt Lake Actif 137 / 145 40% 1 09.11.2026 -
Iván Angulo Orlando City Actif 132 / 132 40% 1 06.11.2026 -
Jorrel Hato Chelsea Actif 142 / 146 40% 2 04.11.2026 -
Alan Lescano Argentinos Juniors Actif 130 / 127 40% 1 04.11.2026 -
Monty Batlhabane Polokwane City Actif 103 / 103 40% 2 02.11.2026 -
Montader Madjed Hammarby Actif 125 / 110 40% 1 02.11.2026 -
Derensili Sanches Fernandes Huddersfield Town Actif 134 / 115 40% 1 02.11.2026 -
Ilyas Ansah Hull City Actif 124 / 147 40% 1 27.10.2026 -
Ramiro Hernandes Belgrano Actif 132 / 143 40% 1 26.10.2026 -
Oscar Schwartau Norwich City Actif 113 / 128 40% 1 19.10.2026 -
Wisdom Udom Bendel Insurance Actif 70 / 79 40% 1 18.10.2026 -
Reed Baker-Whiting Nashville SC Actif 121 / 103 40% 2 13.10.2026 -
Robert FC Copenhagen Actif 116 / 122 40% 1 07.10.2026 -
Kristian Fletcher FC Cincinnati Actif 83 / 108 40% 1 05.10.2026 -
Noel Buck San Jose Earthquakes Actif 111 / 134 40% 1 15.09.2026 -
Andy Rojas New York Red Bulls Actif 81 / 86 40% 1 08.09.2026 -
Jodi Jones Notts County Actif 97 / 100 58% 1 10.08.2026 -